sensor_id;sensor_type;location;lat;lon;timestamp;P1;durP1;ratioP1;P2;durP2;ratioP2
5303;SDS011;2674;49.722;10.892;2022-08-01T00:01:51;4.67;;;4.37;;
5303;SDS011;2674;49.722;10.892;2022-08-01T00:04:17;4.63;;;4.33;;
5303;SDS011;2674;49.722;10.892;2022-08-01T00:06:43;5.13;;;3.80;;
5303;SDS011;2674;49.722;10.892;2022-08-01T00:09:09;5.63;;;5.00;;
5303;SDS011;2674;49.722;10.892;2022-08-01T00:11:35;5.17;;;4.83;;
5303;SDS011;2674;49.722;10.892;2022-08-01T00:14:01;4.80;;;4.50;;
5303;SDS011;2674;49.722;10.892;2022-08-01T00:16:27;15.33;;;4.47;;
5303;SDS011;2674;49.722;10.892;2022-08-01T00:18:53;4.60;;;4.20;;
5303;SDS011;2674;49.722;10.892;2022-08-01T00:21:20;5.27;;;4.87;;
5303;SDS011;2674;49.722;10.892;2022-08-01T00:23:46;6.80;;;6.20;;
5303;SDS011;2674;49.722;10.892;2022-08-01T00:26:13;6.17;;;5.23;;
5303;SDS011;2674;49.722;10.892;2022-08-01T00:28:39;6.63;;;5.13;;
5303;SDS011;2674;49.722;10.892;2022-08-01T00:31:06;5.73;;;5.20;;
5303;SDS011;2674;49.722;10.892;2022-08-01T00:33:33;6.93;;;4.70;;
5303;SDS011;2674;49.722;10.892;2022-08-01T00:35:58;5.50;;;4.80;;
5303;SDS011;2674;49.722;10.892;2022-08-01T00:38:24;7.33;;;5.33;;
5303;SDS011;2674;49.722;10.892;2022-08-01T00:40:50;7.20;;;5.67;;
5303;SDS011;2674;49.722;10.892;2022-08-01T00:43:16;6.13;;;5.60;;
5303;SDS011;2674;49.722;10.892;2022-08-01T00:45:42;8.40;;;5.63;;
5303;SDS011;2674;49.722;10.892;2022-08-01T00:48:08;6.57;;;6.00;;
5303;SDS011;2674;49.722;10.892;2022-08-01T00:50:34;5.93;;;5.33;;
5303;SDS011;2674;49.722;10.892;2022-08-01T00:53:00;5.40;;;4.90;;
5303;SDS011;2674;49.722;10.892;2022-08-01T00:55:27;5.90;;;5.13;;
5303;SDS011;2674;49.722;10.892;2022-08-01T00:57:54;5.27;;;4.60;;
5303;SDS011;2674;49.722;10.892;2022-08-01T01:00:20;5.13;;;4.73;;
5303;SDS011;2674;49.722;10.892;2022-08-01T01:02:47;4.97;;;4.57;;
5303;SDS011;2674;49.722;10.892;2022-08-01T01:05:13;5.30;;;4.90;;
5303;SDS011;2674;49.722;10.892;2022-08-01T01:13:13;5.73;;;5.23;;
5303;SDS011;2674;49.722;10.892;2022-08-01T01:16:01;6.50;;;5.57;;
5303;SDS011;2674;49.722;10.892;2022-08-01T01:23:50;5.03;;;4.10;;
5303;SDS011;2674;49.722;10.892;2022-08-01T01:29:05;6.20;;;5.37;;
5303;SDS011;2674;49.722;10.892;2022-08-01T01:31:50;6.23;;;5.43;;
5303;SDS011;2674;49.722;10.892;2022-08-01T01:34:21;6.40;;;5.60;;
5303;SDS011;2674;49.722;10.892;2022-08-01T01:36:49;6.90;;;6.00;;
5303;SDS011;2674;49.722;10.892;2022-08-01T01:39:17;7.07;;;6.33;;
5303;SDS011;2674;49.722;10.892;2022-08-01T01:41:45;7.00;;;6.27;;
5303;SDS011;2674;49.722;10.892;2022-08-01T01:44:13;6.83;;;5.63;;
5303;SDS011;2674;49.722;10.892;2022-08-01T01:46:42;6.30;;;5.70;;
5303;SDS011;2674;49.722;10.892;2022-08-01T01:49:08;9.60;;;6.37;;
5303;SDS011;2674;49.722;10.892;2022-08-01T01:51:35;6.50;;;5.90;;
5303;SDS011;2674;49.722;10.892;2022-08-01T01:54:04;6.50;;;5.90;;
5303;SDS011;2674;49.722;10.892;2022-08-01T01:56:31;6.37;;;5.77;;
5303;SDS011;2674;49.722;10.892;2022-08-01T01:58:59;7.77;;;5.07;;
5303;SDS011;2674;49.722;10.892;2022-08-01T02:01:28;9.13;;;5.93;;
5303;SDS011;2674;49.722;10.892;2022-08-01T02:03:57;6.03;;;5.43;;
5303;SDS011;2674;49.722;10.892;2022-08-01T02:06:27;8.47;;;5.87;;
5303;SDS011;2674;49.722;10.892;2022-08-01T02:08:55;5.38;;;4.97;;
5303;SDS011;2674;49.722;10.892;2022-08-01T02:11:21;6.57;;;5.30;;
5303;SDS011;2674;49.722;10.892;2022-08-01T02:13:51;6.57;;;5.40;;
5303;SDS011;2674;49.722;10.892;2022-08-01T02:16:24;5.70;;;5.23;;
5303;SDS011;2674;49.722;10.892;2022-08-01T02:18:52;6.27;;;5.77;;
5303;SDS011;2674;49.722;10.892;2022-08-01T02:21:20;8.23;;;6.30;;
5303;SDS011;2674;49.722;10.892;2022-08-01T02:23:50;7.00;;;6.30;;
5303;SDS011;2674;49.722;10.892;2022-08-01T02:26:17;7.23;;;6.60;;
5303;SDS011;2674;49.722;10.892;2022-08-01T02:28:49;7.33;;;6.20;;
5303;SDS011;2674;49.722;10.892;2022-08-01T02:31:31;6.13;;;5.57;;
5303;SDS011;2674;49.722;10.892;2022-08-01T02:34:01;5.87;;;5.37;;
5303;SDS011;2674;49.722;10.892;2022-08-01T02:36:31;5.90;;;5.40;;
5303;SDS011;2674;49.722;10.892;2022-08-01T02:39:05;5.53;;;5.13;;
5303;SDS011;2674;49.722;10.892;2022-08-01T02:41:35;6.87;;;4.80;;
5303;SDS011;2674;49.722;10.892;2022-08-01T02:44:07;5.77;;;5.27;;
5303;SDS011;2674;49.722;10.892;2022-08-01T02:46:42;5.53;;;5.03;;
5303;SDS011;2674;49.722;10.892;2022-08-01T02:49:14;6.17;;;5.57;;
5303;SDS011;2674;49.722;10.892;2022-08-01T02:51:45;6.27;;;5.67;;
5303;SDS011;2674;49.722;10.892;2022-08-01T02:54:13;6.50;;;6.00;;
5303;SDS011;2674;49.722;10.892;2022-08-01T02:56:42;5.60;;;5.10;;
5303;SDS011;2674;49.722;10.892;2022-08-01T02:59:13;6.00;;;5.50;;
5303;SDS011;2674;49.722;10.892;2022-08-01T03:01:43;11.83;;;6.27;;
5303;SDS011;2674;49.722;10.892;2022-08-01T03:04:10;6.63;;;5.53;;
5303;SDS011;2674;49.722;10.892;2022-08-01T03:06:37;6.70;;;6.10;;
5303;SDS011;2674;49.722;10.892;2022-08-01T03:09:04;8.63;;;5.00;;
5303;SDS011;2674;49.722;10.892;2022-08-01T03:11:32;5.00;;;4.60;;
5303;SDS011;2674;49.722;10.892;2022-08-01T03:14:00;7.93;;;4.50;;
5303;SDS011;2674;49.722;10.892;2022-08-01T03:16:30;5.50;;;5.10;;
5303;SDS011;2674;49.722;10.892;2022-08-01T03:18:58;4.40;;;4.10;;
5303;SDS011;2674;49.722;10.892;2022-08-01T03:21:26;6.27;;;4.60;;
5303;SDS011;2674;49.722;10.892;2022-08-01T03:23:55;5.20;;;4.80;;
5303;SDS011;2674;49.722;10.892;2022-08-01T03:26:25;5.37;;;4.97;;
5303;SDS011;2674;49.722;10.892;2022-08-01T03:28:58;7.63;;;5.60;;
5303;SDS011;2674;49.722;10.892;2022-08-01T03:31:31;6.40;;;5.90;;
5303;SDS011;2674;49.722;10.892;2022-08-01T03:34:00;6.23;;;5.73;;
5303;SDS011;2674;49.722;10.892;2022-08-01T03:36:26;8.03;;;7.20;;
5303;SDS011;2674;49.722;10.892;2022-08-01T03:38:56;7.60;;;5.60;;
5303;SDS011;2674;49.722;10.892;2022-08-01T03:41:25;8.63;;;6.53;;
5303;SDS011;2674;49.722;10.892;2022-08-01T03:43:58;6.67;;;6.07;;
5303;SDS011;2674;49.722;10.892;2022-08-01T03:46:30;7.60;;;6.90;;
5303;SDS011;2674;49.722;10.892;2022-08-01T03:49:00;6.30;;;5.60;;
5303;SDS011;2674;49.722;10.892;2022-08-01T03:51:32;6.80;;;6.20;;
5303;SDS011;2674;49.722;10.892;2022-08-01T03:53:59;5.90;;;5.40;;
5303;SDS011;2674;49.722;10.892;2022-08-01T03:56:26;6.78;;;6.18;;
5303;SDS011;2674;49.722;10.892;2022-08-01T03:58:57;6.90;;;6.23;;
5303;SDS011;2674;49.722;10.892;2022-08-01T04:01:26;6.90;;;6.20;;
5303;SDS011;2674;49.722;10.892;2022-08-01T04:03:54;7.60;;;6.83;;
5303;SDS011;2674;49.722;10.892;2022-08-01T04:06:20;6.90;;;6.20;;
5303;SDS011;2674;49.722;10.892;2022-08-01T04:08:46;7.53;;;6.87;;
5303;SDS011;2674;49.722;10.892;2022-08-01T04:11:21;7.00;;;6.40;;
5303;SDS011;2674;49.722;10.892;2022-08-01T04:13:48;9.70;;;6.30;;
5303;SDS011;2674;49.722;10.892;2022-08-01T04:16:15;10.10;;;6.37;;
5303;SDS011;2674;49.722;10.892;2022-08-01T04:18:41;5.87;;;5.47;;
5303;SDS011;2674;49.722;10.892;2022-08-01T04:21:07;6.67;;;5.53;;
5303;SDS011;2674;49.722;10.892;2022-08-01T04:23:33;7.17;;;6.03;;
5303;SDS011;2674;49.722;10.892;2022-08-01T04:26:01;7.03;;;6.37;;
5303;SDS011;2674;49.722;10.892;2022-08-01T04:28:30;5.57;;;5.17;;
5303;SDS011;2674;49.722;10.892;2022-08-01T04:30:59;5.30;;;4.90;;
5303;SDS011;2674;49.722;10.892;2022-08-01T04:33:26;7.33;;;5.10;;
5303;SDS011;2674;49.722;10.892;2022-08-01T04:35:55;6.10;;;5.30;;
5303;SDS011;2674;49.722;10.892;2022-08-01T04:38:24;9.17;;;5.60;;
5303;SDS011;2674;49.722;10.892;2022-08-01T04:40:53;4.83;;;4.43;;
5303;SDS011;2674;49.722;10.892;2022-08-01T04:43:21;8.60;;;5.47;;
5303;SDS011;2674;49.722;10.892;2022-08-01T04:45:48;5.87;;;5.40;;
5303;SDS011;2674;49.722;10.892;2022-08-01T04:48:16;5.50;;;5.10;;
5303;SDS011;2674;49.722;10.892;2022-08-01T04:50:45;7.80;;;5.87;;
5303;SDS011;2674;49.722;10.892;2022-08-01T04:53:13;5.67;;;5.17;;
5303;SDS011;2674;49.722;10.892;2022-08-01T04:55:39;6.00;;;5.50;;
5303;SDS011;2674;49.722;10.892;2022-08-01T04:58:05;5.67;;;5.10;;
5303;SDS011;2674;49.722;10.892;2022-08-01T05:00:33;8.50;;;5.83;;
5303;SDS011;2674;49.722;10.892;2022-08-01T05:02:59;5.80;;;5.00;;
5303;SDS011;2674;49.722;10.892;2022-08-01T05:05:25;8.10;;;6.37;;
5303;SDS011;2674;49.722;10.892;2022-08-01T05:07:51;9.47;;;6.00;;
5303;SDS011;2674;49.722;10.892;2022-08-01T05:10:17;8.07;;;7.00;;
5303;SDS011;2674;49.722;10.892;2022-08-01T05:12:43;6.87;;;6.20;;
5303;SDS011;2674;49.722;10.892;2022-08-01T05:15:09;6.53;;;5.93;;
5303;SDS011;2674;49.722;10.892;2022-08-01T05:17:35;7.00;;;6.18;;
5303;SDS011;2674;49.722;10.892;2022-08-01T05:20:01;7.07;;;6.47;;
5303;SDS011;2674;49.722;10.892;2022-08-01T05:22:27;6.72;;;6.15;;
5303;SDS011;2674;49.722;10.892;2022-08-01T05:24:52;6.50;;;6.00;;
5303;SDS011;2674;49.722;10.892;2022-08-01T05:27:18;6.23;;;5.40;;
5303;SDS011;2674;49.722;10.892;2022-08-01T05:29:44;7.90;;;5.20;;
5303;SDS011;2674;49.722;10.892;2022-08-01T05:32:10;4.70;;;4.30;;
5303;SDS011;2674;49.722;10.892;2022-08-01T05:34:36;4.20;;;3.90;;
5303;SDS011;2674;49.722;10.892;2022-08-01T05:37:02;3.70;;;3.37;;
5303;SDS011;2674;49.722;10.892;2022-08-01T05:39:28;3.27;;;2.97;;
5303;SDS011;2674;49.722;10.892;2022-08-01T05:41:54;2.87;;;2.70;;
5303;SDS011;2674;49.722;10.892;2022-08-01T05:44:20;2.47;;;2.37;;
5303;SDS011;2674;49.722;10.892;2022-08-01T05:46:46;2.40;;;2.20;;
5303;SDS011;2674;49.722;10.892;2022-08-01T05:49:12;4.93;;;2.70;;
5303;SDS011;2674;49.722;10.892;2022-08-01T05:51:38;8.87;;;2.63;;
5303;SDS011;2674;49.722;10.892;2022-08-01T05:54:04;2.37;;;2.20;;
5303;SDS011;2674;49.722;10.892;2022-08-01T05:56:30;4.30;;;2.47;;
5303;SDS011;2674;49.722;10.892;2022-08-01T05:58:56;3.20;;;2.40;;
5303;SDS011;2674;49.722;10.892;2022-08-01T06:01:22;3.17;;;2.33;;
5303;SDS011;2674;49.722;10.892;2022-08-01T06:03:48;4.23;;;3.00;;
5303;SDS011;2674;49.722;10.892;2022-08-01T06:06:14;2.70;;;2.37;;
5303;SDS011;2674;49.722;10.892;2022-08-01T06:08:40;3.90;;;2.87;;
5303;SDS011;2674;49.722;10.892;2022-08-01T06:11:07;3.67;;;3.33;;
5303;SDS011;2674;49.722;10.892;2022-08-01T06:13:33;5.57;;;4.43;;
5303;SDS011;2674;49.722;10.892;2022-08-01T06:15:59;5.40;;;5.00;;
5303;SDS011;2674;49.722;10.892;2022-08-01T06:18:25;4.77;;;4.37;;
5303;SDS011;2674;49.722;10.892;2022-08-01T06:20:50;4.10;;;3.80;;
5303;SDS011;2674;49.722;10.892;2022-08-01T06:23:16;4.07;;;3.77;;
5303;SDS011;2674;49.722;10.892;2022-08-01T06:25:42;7.03;;;5.03;;
5303;SDS011;2674;49.722;10.892;2022-08-01T06:28:09;6.03;;;3.90;;
5303;SDS011;2674;49.722;10.892;2022-08-01T06:30:34;4.57;;;4.00;;
5303;SDS011;2674;49.722;10.892;2022-08-01T06:33:00;4.73;;;4.33;;
5303;SDS011;2674;49.722;10.892;2022-08-01T06:35:28;5.70;;;3.97;;
5303;SDS011;2674;49.722;10.892;2022-08-01T06:37:55;4.27;;;3.63;;
5303;SDS011;2674;49.722;10.892;2022-08-01T06:40:21;3.30;;;3.00;;
5303;SDS011;2674;49.722;10.892;2022-08-01T06:42:47;4.30;;;3.90;;
5303;SDS011;2674;49.722;10.892;2022-08-01T06:45:13;4.20;;;2.63;;
5303;SDS011;2674;49.722;10.892;2022-08-01T06:47:41;5.03;;;2.50;;
5303;SDS011;2674;49.722;10.892;2022-08-01T06:50:10;2.37;;;2.17;;
5303;SDS011;2674;49.722;10.892;2022-08-01T06:52:36;6.07;;;2.33;;
5303;SDS011;2674;49.722;10.892;2022-08-01T06:55:03;2.50;;;2.30;;
5303;SDS011;2674;49.722;10.892;2022-08-01T06:57:29;2.90;;;2.20;;
5303;SDS011;2674;49.722;10.892;2022-08-01T06:59:55;2.50;;;2.30;;
5303;SDS011;2674;49.722;10.892;2022-08-01T07:02:21;4.23;;;2.20;;
5303;SDS011;2674;49.722;10.892;2022-08-01T07:04:47;3.20;;;2.90;;
5303;SDS011;2674;49.722;10.892;2022-08-01T07:07:13;5.03;;;2.33;;
5303;SDS011;2674;49.722;10.892;2022-08-01T07:09:39;2.60;;;2.40;;
5303;SDS011;2674;49.722;10.892;2022-08-01T07:12:08;2.63;;;2.43;;
5303;SDS011;2674;49.722;10.892;2022-08-01T07:14:34;2.47;;;1.83;;
5303;SDS011;2674;49.722;10.892;2022-08-01T07:17:00;4.00;;;2.30;;
5303;SDS011;2674;49.722;10.892;2022-08-01T07:19:26;3.33;;;1.80;;
5303;SDS011;2674;49.722;10.892;2022-08-01T07:21:52;2.27;;;2.17;;
5303;SDS011;2674;49.722;10.892;2022-08-01T07:24:19;4.00;;;2.50;;
5303;SDS011;2674;49.722;10.892;2022-08-01T07:26:45;3.77;;;2.20;;
5303;SDS011;2674;49.722;10.892;2022-08-01T07:29:13;2.57;;;2.37;;
5303;SDS011;2674;49.722;10.892;2022-08-01T07:31:39;4.33;;;2.57;;
5303;SDS011;2674;49.722;10.892;2022-08-01T07:34:06;2.00;;;1.80;;
5303;SDS011;2674;49.722;10.892;2022-08-01T07:36:32;4.03;;;2.03;;
5303;SDS011;2674;49.722;10.892;2022-08-01T07:38:58;2.73;;;2.53;;
5303;SDS011;2674;49.722;10.892;2022-08-01T07:41:24;3.13;;;2.13;;
5303;SDS011;2674;49.722;10.892;2022-08-01T07:43:50;2.20;;;2.07;;
5303;SDS011;2674;49.722;10.892;2022-08-01T07:46:16;2.23;;;2.07;;
5303;SDS011;2674;49.722;10.892;2022-08-01T07:48:42;4.53;;;3.50;;
5303;SDS011;2674;49.722;10.892;2022-08-01T07:51:08;2.30;;;2.10;;
5303;SDS011;2674;49.722;10.892;2022-08-01T07:53:35;2.53;;;2.33;;
5303;SDS011;2674;49.722;10.892;2022-08-01T07:56:01;4.93;;;2.40;;
5303;SDS011;2674;49.722;10.892;2022-08-01T07:58:30;1.90;;;1.77;;
5303;SDS011;2674;49.722;10.892;2022-08-01T08:00:55;1.70;;;1.60;;
5303;SDS011;2674;49.722;10.892;2022-08-01T08:03:21;2.63;;;1.30;;
5303;SDS011;2674;49.722;10.892;2022-08-01T08:05:47;1.80;;;1.70;;
5303;SDS011;2674;49.722;10.892;2022-08-01T08:08:13;2.77;;;2.00;;
5303;SDS011;2674;49.722;10.892;2022-08-01T08:10:40;2.00;;;1.77;;
5303;SDS011;2674;49.722;10.892;2022-08-01T08:13:06;2.27;;;2.07;;
5303;SDS011;2674;49.722;10.892;2022-08-01T08:15:32;4.30;;;1.63;;
5303;SDS011;2674;49.722;10.892;2022-08-01T08:17:58;1.80;;;1.70;;
5303;SDS011;2674;49.722;10.892;2022-08-01T08:20:24;2.70;;;2.17;;
5303;SDS011;2674;49.722;10.892;2022-08-01T08:22:52;2.60;;;2.40;;
5303;SDS011;2674;49.722;10.892;2022-08-01T08:25:18;1.27;;;1.27;;
5303;SDS011;2674;49.722;10.892;2022-08-01T08:27:45;3.07;;;2.10;;
5303;SDS011;2674;49.722;10.892;2022-08-01T08:30:11;6.07;;;2.03;;
5303;SDS011;2674;49.722;10.892;2022-08-01T08:32:37;2.20;;;2.07;;
5303;SDS011;2674;49.722;10.892;2022-08-01T08:35:04;3.40;;;2.00;;
5303;SDS011;2674;49.722;10.892;2022-08-01T08:37:30;5.60;;;3.10;;
5303;SDS011;2674;49.722;10.892;2022-08-01T08:39:56;8.17;;;4.23;;
5303;SDS011;2674;49.722;10.892;2022-08-01T08:42:22;8.70;;;3.00;;
5303;SDS011;2674;49.722;10.892;2022-08-01T08:44:49;6.20;;;2.97;;
5303;SDS011;2674;49.722;10.892;2022-08-01T08:47:15;3.97;;;1.97;;
5303;SDS011;2674;49.722;10.892;2022-08-01T08:49:44;2.30;;;1.67;;
5303;SDS011;2674;49.722;10.892;2022-08-01T08:52:10;6.53;;;1.87;;
5303;SDS011;2674;49.722;10.892;2022-08-01T08:54:37;3.73;;;1.80;;
5303;SDS011;2674;49.722;10.892;2022-08-01T08:57:06;3.60;;;1.80;;
5303;SDS011;2674;49.722;10.892;2022-08-01T08:59:32;2.03;;;1.93;;
5303;SDS011;2674;49.722;10.892;2022-08-01T09:01:58;4.03;;;2.00;;
5303;SDS011;2674;49.722;10.892;2022-08-01T09:04:24;1.87;;;1.70;;
5303;SDS011;2674;49.722;10.892;2022-08-01T09:06:51;3.23;;;1.93;;
5303;SDS011;2674;49.722;10.892;2022-08-01T09:09:18;2.60;;;2.07;;
5303;SDS011;2674;49.722;10.892;2022-08-01T09:11:44;2.20;;;2.00;;
5303;SDS011;2674;49.722;10.892;2022-08-01T09:14:13;2.77;;;2.57;;
5303;SDS011;2674;49.722;10.892;2022-08-01T09:16:47;2.70;;;1.60;;
5303;SDS011;2674;49.722;10.892;2022-08-01T09:19:25;4.60;;;2.00;;
5303;SDS011;2674;49.722;10.892;2022-08-01T09:22:00;2.40;;;2.20;;
5303;SDS011;2674;49.722;10.892;2022-08-01T09:24:29;3.33;;;2.00;;
5303;SDS011;2674;49.722;10.892;2022-08-01T09:26:56;3.40;;;1.10;;
5303;SDS011;2674;49.722;10.892;2022-08-01T09:29:24;2.30;;;1.87;;
5303;SDS011;2674;49.722;10.892;2022-08-01T09:31:55;2.90;;;2.50;;
5303;SDS011;2674;49.722;10.892;2022-08-01T09:34:26;4.57;;;1.60;;
5303;SDS011;2674;49.722;10.892;2022-08-01T09:39:25;2.40;;;2.30;;
5303;SDS011;2674;49.722;10.892;2022-08-01T09:41:52;1.87;;;1.73;;
5303;SDS011;2674;49.722;10.892;2022-08-01T09:44:19;10.67;;;1.30;;
5303;SDS011;2674;49.722;10.892;2022-08-01T09:47:00;2.53;;;1.80;;
5303;SDS011;2674;49.722;10.892;2022-08-01T09:49:28;3.17;;;1.73;;
5303;SDS011;2674;49.722;10.892;2022-08-01T09:52:10;3.57;;;1.50;;
5303;SDS011;2674;49.722;10.892;2022-08-01T09:54:42;3.03;;;1.87;;
5303;SDS011;2674;49.722;10.892;2022-08-01T09:57:13;1.53;;;1.43;;
5303;SDS011;2674;49.722;10.892;2022-08-01T09:59:42;1.90;;;1.60;;
5303;SDS011;2674;49.722;10.892;2022-08-01T10:02:10;1.83;;;1.73;;
5303;SDS011;2674;49.722;10.892;2022-08-01T10:04:49;1.60;;;1.50;;
5303;SDS011;2674;49.722;10.892;2022-08-01T10:07:16;1.83;;;1.50;;
5303;SDS011;2674;49.722;10.892;2022-08-01T10:09:43;2.83;;;1.73;;
5303;SDS011;2674;49.722;10.892;2022-08-01T10:12:10;3.60;;;1.63;;
5303;SDS011;2674;49.722;10.892;2022-08-01T10:14:38;1.40;;;1.30;;
5303;SDS011;2674;49.722;10.892;2022-08-01T10:17:06;1.90;;;1.60;;
5303;SDS011;2674;49.722;10.892;2022-08-01T10:19:34;1.87;;;1.53;;
5303;SDS011;2674;49.722;10.892;2022-08-01T10:22:01;1.80;;;1.70;;
5303;SDS011;2674;49.722;10.892;2022-08-01T10:24:30;2.10;;;1.57;;
5303;SDS011;2674;49.722;10.892;2022-08-01T10:27:02;2.50;;;2.10;;
5303;SDS011;2674;49.722;10.892;2022-08-01T10:29:41;1.57;;;1.47;;
5303;SDS011;2674;49.722;10.892;2022-08-01T10:32:19;1.30;;;1.20;;
5303;SDS011;2674;49.722;10.892;2022-08-01T10:34:46;6.07;;;1.80;;
5303;SDS011;2674;49.722;10.892;2022-08-01T10:37:17;1.70;;;1.60;;
5303;SDS011;2674;49.722;10.892;2022-08-01T10:39:43;1.60;;;1.60;;
5303;SDS011;2674;49.722;10.892;2022-08-01T10:42:11;2.10;;;1.80;;
5303;SDS011;2674;49.722;10.892;2022-08-01T10:44:37;2.30;;;1.40;;
5303;SDS011;2674;49.722;10.892;2022-08-01T10:47:12;4.77;;;1.87;;
5303;SDS011;2674;49.722;10.892;2022-08-01T10:49:43;1.57;;;1.57;;
5303;SDS011;2674;49.722;10.892;2022-08-01T10:52:19;4.00;;;2.10;;
5303;SDS011;2674;49.722;10.892;2022-08-01T10:54:46;2.07;;;1.87;;
5303;SDS011;2674;49.722;10.892;2022-08-01T10:57:12;2.53;;;1.83;;
5303;SDS011;2674;49.722;10.892;2022-08-01T10:59:49;2.40;;;2.20;;
5303;SDS011;2674;49.722;10.892;2022-08-01T11:02:24;2.70;;;2.20;;
5303;SDS011;2674;49.722;10.892;2022-08-01T11:05:04;2.50;;;2.30;;
5303;SDS011;2674;49.722;10.892;2022-08-01T11:07:48;2.00;;;1.90;;
5303;SDS011;2674;49.722;10.892;2022-08-01T11:13:03;2.40;;;2.27;;
5303;SDS011;2674;49.722;10.892;2022-08-01T11:15:33;2.20;;;2.10;;
5303;SDS011;2674;49.722;10.892;2022-08-01T11:18:01;2.13;;;2.03;;
5303;SDS011;2674;49.722;10.892;2022-08-01T11:20:29;2.97;;;2.40;;
5303;SDS011;2674;49.722;10.892;2022-08-01T11:25:26;3.90;;;2.40;;
5303;SDS011;2674;49.722;10.892;2022-08-01T11:30:44;3.67;;;2.87;;
5303;SDS011;2674;49.722;10.892;2022-08-01T11:33:15;3.13;;;1.93;;
5303;SDS011;2674;49.722;10.892;2022-08-01T11:38:37;2.90;;;2.70;;
5303;SDS011;2674;49.722;10.892;2022-08-01T11:41:25;2.70;;;2.50;;
5303;SDS011;2674;49.722;10.892;2022-08-01T11:46:55;2.07;;;1.97;;
5303;SDS011;2674;49.722;10.892;2022-08-01T11:52:16;2.43;;;2.10;;
5303;SDS011;2674;49.722;10.892;2022-08-01T11:55:07;6.63;;;2.70;;
5303;SDS011;2674;49.722;10.892;2022-08-01T11:57:34;2.30;;;2.10;;
5303;SDS011;2674;49.722;10.892;2022-08-01T12:00:04;2.10;;;2.00;;
5303;SDS011;2674;49.722;10.892;2022-08-01T12:02:38;1.83;;;1.70;;
5303;SDS011;2674;49.722;10.892;2022-08-01T12:05:05;2.43;;;1.73;;
5303;SDS011;2674;49.722;10.892;2022-08-01T12:07:35;1.87;;;1.77;;
5303;SDS011;2674;49.722;10.892;2022-08-01T12:12:32;2.33;;;2.23;;
5303;SDS011;2674;49.722;10.892;2022-08-01T12:15:00;2.40;;;2.30;;
5303;SDS011;2674;49.722;10.892;2022-08-01T12:17:29;2.40;;;1.97;;
5303;SDS011;2674;49.722;10.892;2022-08-01T12:20:01;2.00;;;1.90;;
5303;SDS011;2674;49.722;10.892;2022-08-01T12:22:29;1.80;;;1.70;;
5303;SDS011;2674;49.722;10.892;2022-08-01T12:24:55;5.00;;;2.30;;
5303;SDS011;2674;49.722;10.892;2022-08-01T12:27:29;2.60;;;2.10;;
5303;SDS011;2674;49.722;10.892;2022-08-01T12:29:56;2.13;;;2.03;;
5303;SDS011;2674;49.722;10.892;2022-08-01T12:32:27;2.20;;;2.07;;
5303;SDS011;2674;49.722;10.892;2022-08-01T12:35:04;4.00;;;1.97;;
5303;SDS011;2674;49.722;10.892;2022-08-01T12:37:36;6.00;;;2.00;;
5303;SDS011;2674;49.722;10.892;2022-08-01T12:42:37;6.30;;;2.10;;
5303;SDS011;2674;49.722;10.892;2022-08-01T12:45:04;2.97;;;2.53;;
5303;SDS011;2674;49.722;10.892;2022-08-01T12:47:32;2.43;;;2.27;;
5303;SDS011;2674;49.722;10.892;2022-08-01T12:49:59;2.10;;;1.90;;
5303;SDS011;2674;49.722;10.892;2022-08-01T12:52:25;2.17;;;2.07;;
5303;SDS011;2674;49.722;10.892;2022-08-01T12:57:42;2.00;;;1.90;;
5303;SDS011;2674;49.722;10.892;2022-08-01T13:02:46;2.60;;;1.83;;
5303;SDS011;2674;49.722;10.892;2022-08-01T13:05:14;1.80;;;1.70;;
5303;SDS011;2674;49.722;10.892;2022-08-01T13:07:45;1.77;;;1.67;;
5303;SDS011;2674;49.722;10.892;2022-08-01T13:10:14;2.17;;;2.00;;
5303;SDS011;2674;49.722;10.892;2022-08-01T13:12:52;2.07;;;1.97;;
5303;SDS011;2674;49.722;10.892;2022-08-01T13:17:46;6.60;;;2.80;;
5303;SDS011;2674;49.722;10.892;2022-08-01T13:20:25;1.80;;;1.70;;
5303;SDS011;2674;49.722;10.892;2022-08-01T13:22:53;5.63;;;1.70;;
5303;SDS011;2674;49.722;10.892;2022-08-01T13:25:19;3.70;;;1.57;;
5303;SDS011;2674;49.722;10.892;2022-08-01T13:27:45;8.40;;;2.00;;
5303;SDS011;2674;49.722;10.892;2022-08-01T13:30:12;1.97;;;1.70;;
5303;SDS011;2674;49.722;10.892;2022-08-01T13:32:43;2.77;;;2.10;;
5303;SDS011;2674;49.722;10.892;2022-08-01T13:35:22;2.00;;;1.77;;
5303;SDS011;2674;49.722;10.892;2022-08-01T13:37:48;1.80;;;1.70;;
5303;SDS011;2674;49.722;10.892;2022-08-01T13:40:22;1.80;;;1.70;;
5303;SDS011;2674;49.722;10.892;2022-08-01T13:42:52;1.60;;;1.57;;
5303;SDS011;2674;49.722;10.892;2022-08-01T13:45:20;2.60;;;1.97;;
5303;SDS011;2674;49.722;10.892;2022-08-01T13:47:46;1.80;;;1.70;;
5303;SDS011;2674;49.722;10.892;2022-08-01T13:50:12;1.83;;;1.73;;
5303;SDS011;2674;49.722;10.892;2022-08-01T13:52:38;2.27;;;2.07;;
5303;SDS011;2674;49.722;10.892;2022-08-01T13:55:04;1.90;;;1.80;;
5303;SDS011;2674;49.722;10.892;2022-08-01T13:57:30;1.80;;;1.70;;
5303;SDS011;2674;49.722;10.892;2022-08-01T13:59:56;1.90;;;1.80;;
5303;SDS011;2674;49.722;10.892;2022-08-01T14:02:25;1.60;;;1.40;;
5303;SDS011;2674;49.722;10.892;2022-08-01T14:04:52;1.53;;;1.50;;
5303;SDS011;2674;49.722;10.892;2022-08-01T14:07:19;1.83;;;1.80;;
5303;SDS011;2674;49.722;10.892;2022-08-01T14:09:46;2.07;;;1.57;;
5303;SDS011;2674;49.722;10.892;2022-08-01T14:12:11;1.47;;;1.37;;
5303;SDS011;2674;49.722;10.892;2022-08-01T14:14:37;2.27;;;1.60;;
5303;SDS011;2674;49.722;10.892;2022-08-01T14:17:03;3.67;;;1.50;;
5303;SDS011;2674;49.722;10.892;2022-08-01T14:19:30;2.40;;;2.20;;
5303;SDS011;2674;49.722;10.892;2022-08-01T14:21:56;1.47;;;1.40;;
5303;SDS011;2674;49.722;10.892;2022-08-01T14:24:22;5.97;;;1.77;;
5303;SDS011;2674;49.722;10.892;2022-08-01T14:26:49;2.40;;;1.80;;
5303;SDS011;2674;49.722;10.892;2022-08-01T14:29:15;1.80;;;1.70;;
5303;SDS011;2674;49.722;10.892;2022-08-01T14:31:41;1.80;;;1.30;;
5303;SDS011;2674;49.722;10.892;2022-08-01T14:34:07;1.47;;;1.40;;
5303;SDS011;2674;49.722;10.892;2022-08-01T14:36:33;1.47;;;1.40;;
5303;SDS011;2674;49.722;10.892;2022-08-01T14:38:59;1.80;;;1.70;;
5303;SDS011;2674;49.722;10.892;2022-08-01T14:41:25;1.57;;;1.57;;
5303;SDS011;2674;49.722;10.892;2022-08-01T14:43:52;1.77;;;1.67;;
5303;SDS011;2674;49.722;10.892;2022-08-01T14:46:18;1.63;;;1.53;;
5303;SDS011;2674;49.722;10.892;2022-08-01T14:48:43;1.47;;;1.37;;
5303;SDS011;2674;49.722;10.892;2022-08-01T14:51:09;3.13;;;2.00;;
5303;SDS011;2674;49.722;10.892;2022-08-01T14:53:35;1.77;;;1.67;;
5303;SDS011;2674;49.722;10.892;2022-08-01T14:56:05;4.20;;;1.73;;
5303;SDS011;2674;49.722;10.892;2022-08-01T14:58:32;1.90;;;1.80;;
5303;SDS011;2674;49.722;10.892;2022-08-01T15:00:58;4.20;;;1.50;;
5303;SDS011;2674;49.722;10.892;2022-08-01T15:03:24;2.27;;;2.17;;
5303;SDS011;2674;49.722;10.892;2022-08-01T15:05:50;1.70;;;1.60;;
5303;SDS011;2674;49.722;10.892;2022-08-01T15:08:16;2.00;;;1.80;;
5303;SDS011;2674;49.722;10.892;2022-08-01T15:10:42;2.40;;;1.80;;
5303;SDS011;2674;49.722;10.892;2022-08-01T15:13:08;1.83;;;1.77;;
5303;SDS011;2674;49.722;10.892;2022-08-01T15:15:34;2.20;;;1.60;;
5303;SDS011;2674;49.722;10.892;2022-08-01T15:18:00;1.77;;;1.67;;
5303;SDS011;2674;49.722;10.892;2022-08-01T15:20:26;1.80;;;1.53;;
5303;SDS011;2674;49.722;10.892;2022-08-01T15:22:52;1.40;;;1.40;;
5303;SDS011;2674;49.722;10.892;2022-08-01T15:25:19;5.87;;;1.80;;
5303;SDS011;2674;49.722;10.892;2022-08-01T15:27:45;2.27;;;2.07;;
5303;SDS011;2674;49.722;10.892;2022-08-01T15:30:11;1.87;;;1.77;;
5303;SDS011;2674;49.722;10.892;2022-08-01T15:32:37;6.97;;;1.83;;
5303;SDS011;2674;49.722;10.892;2022-08-01T15:35:03;5.83;;;1.90;;
5303;SDS011;2674;49.722;10.892;2022-08-01T15:37:31;3.37;;;1.43;;
5303;SDS011;2674;49.722;10.892;2022-08-01T15:39:57;1.93;;;1.83;;
5303;SDS011;2674;49.722;10.892;2022-08-01T15:42:23;1.73;;;1.63;;
5303;SDS011;2674;49.722;10.892;2022-08-01T15:44:49;2.50;;;1.90;;
5303;SDS011;2674;49.722;10.892;2022-08-01T15:47:15;1.80;;;1.70;;
5303;SDS011;2674;49.722;10.892;2022-08-01T15:49:41;1.90;;;1.63;;
5303;SDS011;2674;49.722;10.892;2022-08-01T15:52:07;1.27;;;1.27;;